Time;durP1;ratioP1;P1;durP2;ratioP2;P2;SDS_P1;SDS_P2;PMS_P1;PMS_P2;Temp;Humidity;BMP_temperature;BMP_pressure;BME280_temperature;BME280_humidity;BME280_pressure;Samples;Min_cycle;Max_cycle;Signal;HPM_P1;HPM_P2
2023/10/28 00:00:44;;;;;;;4.25;1.58;;;17.30;85.90;;;;;;12554093;28;20464;-70
2023/10/28 00:06:46;;;;;;;3.03;1.10;;;17.30;86.30;;;;;;12520104;28;20499;-70
2023/10/28 00:12:50;;;;;;;3.75;1.85;;;17.30;86.50;;;;;;12519871;28;20040;-70
2023/10/28 00:18:51;;;;;;;2.10;1.23;;;17.40;86.40;;;;;;12554281;28;20044;-69
2023/10/28 00:24:53;;;;;;;7.30;1.98;;;17.30;86.10;;;;;;12536550;28;20353;-70
2023/10/28 00:30:55;;;;;;;1.95;1.02;;;17.40;86.20;;;;;;12541352;28;20330;-70
2023/10/28 00:36:57;;;;;;;2.60;1.10;;;17.30;86.00;;;;;;12545474;28;20032;-69
2023/10/28 00:43:00;;;;;;;3.78;1.65;;;17.00;86.10;;;;;;12545145;28;20048;-69
2023/10/28 00:49:02;;;;;;;6.30;1.73;;;17.00;86.10;;;;;;12528677;28;20040;-70
2023/10/28 00:55:05;;;;;;;3.75;1.10;;;17.00;86.00;;;;;;12544502;28;20354;-69
2023/10/28 01:01:10;;;;;;;2.60;1.08;;;17.00;85.90;;;;;;12544295;28;20037;-69
2023/10/28 01:07:12;;;;;;;1.67;0.95;;;16.90;85.90;;;;;;12528868;28;20048;-69
2023/10/28 01:13:14;;;;;;;1.30;0.80;;;16.80;85.80;;;;;;12543853;28;20064;-69
2023/10/28 01:19:16;;;;;;;3.00;1.23;;;16.80;85.80;;;;;;12560603;28;20039;-70
2023/10/28 01:25:19;;;;;;;8.40;2.03;;;16.60;86.00;;;;;;12560480;28;20091;-69
2023/10/28 01:31:21;;;;;;;6.28;1.50;;;16.50;86.10;;;;;;12543032;28;20033;-70
2023/10/28 01:37:23;;;;;;;3.70;1.65;;;16.60;86.10;;;;;;12542839;28;20355;-69
2023/10/28 01:43:25;;;;;;;2.58;1.25;;;16.60;85.80;;;;;;12559340;28;20342;-70
2023/10/28 01:49:27;;;;;;;4.65;2.05;;;16.70;85.70;;;;;;12560041;28;20342;-70
2023/10/28 01:55:30;;;;;;;9.63;2.20;;;16.70;85.60;;;;;;12559691;28;20037;-70
2023/10/28 02:01:34;;;;;;;4.75;1.65;;;16.70;85.60;;;;;;12541575;28;20329;-69
2023/10/28 02:07:36;;;;;;;2.60;1.27;;;16.70;85.60;;;;;;12559200;28;20472;-70
2023/10/28 02:13:39;;;;;;;7.05;1.52;;;16.50;85.80;;;;;;12541299;28;20226;-70
2023/10/28 02:19:41;;;;;;;2.15;1.33;;;16.60;85.90;;;;;;12540758;28;20029;-70
2023/10/28 02:25:42;;;;;;;3.33;1.45;;;16.40;85.90;;;;;;12540432;28;20048;-70
2023/10/28 02:31:44;;;;;;;3.10;1.45;;;16.30;85.80;;;;;;12540338;28;20037;-70
2023/10/28 02:37:46;;;;;;;2.30;1.40;;;16.30;85.60;;;;;;12539937;28;20032;-70
2023/10/28 02:43:49;;;;;;;3.08;1.60;;;16.40;85.80;;;;;;12539638;28;20032;-70
2023/10/28 02:49:51;;;;;;;2.65;1.52;;;16.30;85.60;;;;;;12539409;28;20044;-70
2023/10/28 02:55:53;;;;;;;5.57;1.48;;;16.30;85.40;;;;;;12556818;28;20043;-70
2023/10/28 03:01:55;;;;;;;3.40;1.27;;;16.20;85.50;;;;;;12556511;28;20037;-70
2023/10/28 03:07:57;;;;;;;2.50;1.40;;;16.20;85.20;;;;;;12556341;28;20033;-70
2023/10/28 03:13:59;;;;;;;7.63;1.45;;;16.20;85.20;;;;;;12538464;28;20029;-70
2023/10/28 03:20:00;;;;;;;2.53;1.67;;;16.20;85.40;;;;;;12537912;28;20040;-70
2023/10/28 03:26:06;;;;;;;1.98;0.95;;;16.20;85.40;;;;;;12537784;28;20430;-70
2023/10/28 03:32:08;;;;;;;2.63;1.10;;;16.00;85.40;;;;;;12537514;28;20033;-70
2023/10/28 03:38:09;;;;;;;1.80;1.33;;;15.80;85.50;;;;;;12537264;28;20357;-70
2023/10/28 03:44:11;;;;;;;3.88;1.10;;;15.80;85.40;;;;;;12554812;28;20375;-70
2023/10/28 03:50:13;;;;;;;4.07;1.98;;;15.70;85.60;;;;;;12554625;28;20040;-70
2023/10/28 03:56:15;;;;;;;4.82;1.50;;;15.80;85.70;;;;;;12554346;28;20043;-70
2023/10/28 04:02:19;;;;;;;3.83;1.30;;;15.80;85.50;;;;;;12554066;28;20472;-70
2023/10/28 04:08:21;;;;;;;3.92;1.20;;;15.70;85.40;;;;;;12553806;28;20024;-70
2023/10/28 04:14:24;;;;;;;2.53;1.42;;;15.50;85.60;;;;;;12553909;28;20032;-70
2023/10/28 04:20:26;;;;;;;3.53;1.75;;;15.30;85.80;;;;;;12536032;28;20036;-70
2023/10/28 04:26:27;;;;;;;4.38;2.63;;;15.40;85.80;;;;;;12553686;28;20409;-70
2023/10/28 04:32:29;;;;;;;2.78;1.52;;;15.50;85.70;;;;;;12535625;28;20044;-70
2023/10/28 04:38:31;;;;;;;3.00;1.38;;;15.50;85.70;;;;;;12553284;28;20029;-70
2023/10/28 04:44:33;;;;;;;6.47;1.38;;;15.40;85.60;;;;;;12519222;28;20358;-70
2023/10/28 04:50:34;;;;;;;3.22;2.00;;;15.40;85.40;;;;;;12535317;28;20044;-70
2023/10/28 04:56:37;;;;;;;4.82;2.65;;;15.30;85.40;;;;;;12518907;28;20354;-70
2023/10/28 05:02:39;;;;;;;3.65;1.42;;;15.30;85.30;;;;;;12534964;28;20029;-70
2023/10/28 05:08:41;;;;;;;3.67;2.03;;;15.20;85.40;;;;;;12518500;28;20036;-70
2023/10/28 05:14:44;;;;;;;7.97;3.03;;;15.00;85.70;;;;;;12534958;28;20025;-70
2023/10/28 05:20:46;;;;;;;4.15;2.67;;;15.20;86.00;;;;;;12561298;28;20346;-70
2023/10/28 05:26:48;;;;;;;7.97;2.97;;;15.20;85.80;;;;;;12561179;28;20025;-70
2023/10/28 05:32:50;;;;;;;5.32;2.80;;;15.20;85.60;;;;;;12560947;28;20354;-72
2023/10/28 05:38:54;;;;;;;8.48;3.15;;;15.10;85.40;;;;;;12560622;28;20414;-72
2023/10/28 05:44:56;;;;;;;3.30;2.28;;;15.10;85.30;;;;;;12542682;28;20032;-72
2023/10/28 05:50:58;;;;;;;4.28;1.73;;;15.00;85.20;;;;;;12560124;28;20029;-72
2023/10/28 22:48:07;;;;;;;8.23;6.60;;;14.50;85.10;;;;;;12699736;27;20298;-69
